createdAt,value
2023-04-16T00:02:19.006Z,20.70
2023-04-16T00:05:13.256Z,20.40
2023-04-16T00:08:07.701Z,20.20
2023-04-16T00:11:01.939Z,20.00
2023-04-16T00:13:56.028Z,19.90
2023-04-16T00:16:50.274Z,19.90
2023-04-16T00:19:44.560Z,19.90
2023-04-16T00:22:38.837Z,19.80
2023-04-16T00:25:32.962Z,19.70
2023-04-16T00:28:28.677Z,19.70
2023-04-16T00:31:34.195Z,19.60
2023-04-16T00:34:28.525Z,19.60
2023-04-16T00:37:22.756Z,19.60
2023-04-16T00:40:16.947Z,19.70
2023-04-16T00:43:11.156Z,19.50
2023-04-16T00:46:10.631Z,19.40
2023-04-16T00:49:05.446Z,19.20
2023-04-16T00:51:59.791Z,19.20
2023-04-16T00:54:54.193Z,19.10
2023-04-16T00:57:48.434Z,19.10
2023-04-16T01:00:42.778Z,19.20
2023-04-16T01:03:46.340Z,19.20
2023-04-16T01:06:40.517Z,19.30
2023-04-16T01:09:34.610Z,19.20
2023-04-16T01:12:28.791Z,19.20
2023-04-16T01:15:22.941Z,19.20
2023-04-16T01:18:22.285Z,19.20
2023-04-16T01:21:16.604Z,19.40
2023-04-16T01:24:10.754Z,19.40
2023-04-16T01:27:04.897Z,19.30
2023-04-16T01:29:59.077Z,19.20
2023-04-16T01:32:53.231Z,19.10
2023-04-16T01:35:47.468Z,19.10
2023-04-16T01:38:41.664Z,19.20
2023-04-16T01:41:35.746Z,19.30
2023-04-16T01:44:30.149Z,19.30
2023-04-16T01:47:26.504Z,19.40
2023-04-16T01:50:22.336Z,19.40
2023-04-16T01:53:17.089Z,19.50
2023-04-16T01:56:11.201Z,19.50
2023-04-16T01:59:05.318Z,19.50
2023-04-16T02:02:02.642Z,19.60
2023-04-16T02:04:57.085Z,19.70
2023-04-16T02:07:51.933Z,19.60
2023-04-16T02:10:48.827Z,19.60
2023-04-16T02:13:43.174Z,19.50
2023-04-16T02:16:37.296Z,19.50
2023-04-16T02:19:31.829Z,19.60
2023-04-16T02:22:26.066Z,19.70
2023-04-16T02:25:20.330Z,19.80
2023-04-16T02:28:16.318Z,19.90
2023-04-16T02:31:10.450Z,20.00
2023-04-16T02:34:04.797Z,19.90
2023-04-16T02:36:59.564Z,19.80
2023-04-16T02:39:54.482Z,19.70
2023-04-16T02:42:48.640Z,19.70
2023-04-16T02:45:42.812Z,19.60
2023-04-16T02:48:37.333Z,19.70
2023-04-16T02:51:32.193Z,19.90
2023-04-16T02:54:26.370Z,20.00
2023-04-16T02:57:20.450Z,20.00
2023-04-16T03:00:14.922Z,20.10
2023-04-16T03:03:09.086Z,20.00
2023-04-16T03:06:03.252Z,20.00
2023-04-16T03:08:57.461Z,20.00
2023-04-16T03:11:51.556Z,19.90
2023-04-16T03:14:45.668Z,20.10
2023-04-16T03:17:39.891Z,20.10
2023-04-16T03:20:34.155Z,20.20
2023-04-16T03:23:29.401Z,20.20
2023-04-16T03:26:23.580Z,20.10
2023-04-16T03:29:17.783Z,20.00
2023-04-16T03:32:13.787Z,20.00
2023-04-16T03:35:09.099Z,20.00
2023-04-16T03:38:03.280Z,20.00
2023-04-16T03:40:57.799Z,20.00
2023-04-16T03:43:52.482Z,20.10
2023-04-16T03:46:46.692Z,20.20
2023-04-16T03:49:41.061Z,20.30
2023-04-16T03:52:35.241Z,20.40
2023-04-16T03:55:30.089Z,20.30
2023-04-16T03:58:24.276Z,20.20
2023-04-16T04:01:18.336Z,20.30
2023-04-16T04:04:12.764Z,20.30
2023-04-16T04:07:07.041Z,20.30
2023-04-16T04:10:01.214Z,20.40
2023-04-16T04:12:55.293Z,20.50
2023-04-16T04:15:49.495Z,20.60
2023-04-16T04:18:44.568Z,20.60
2023-04-16T04:21:38.848Z,20.60
2023-04-16T04:24:32.966Z,20.60
2023-04-16T04:27:27.333Z,20.60
2023-04-16T04:30:21.643Z,20.50
2023-04-16T04:33:15.830Z,20.50
2023-04-16T04:36:10.018Z,20.50
2023-04-16T04:39:04.184Z,20.60
2023-04-16T04:41:59.657Z,20.70
2023-04-16T04:44:53.786Z,20.70
2023-04-16T04:47:48.163Z,20.50
2023-04-16T04:50:42.760Z,20.40
2023-04-16T04:53:37.193Z,20.40
2023-04-16T04:56:31.321Z,20.50
2023-04-16T04:59:26.006Z,20.50
2023-04-16T05:02:20.192Z,20.50
2023-04-16T05:05:14.410Z,20.60
2023-04-16T05:08:08.898Z,20.70
2023-04-16T05:11:04.563Z,20.70
2023-04-16T05:13:58.876Z,20.80
2023-04-16T05:16:53.044Z,20.90
2023-04-16T05:19:47.241Z,21.00
2023-04-16T05:22:41.417Z,21.00
2023-04-16T05:25:35.659Z,21.00
2023-04-16T05:28:29.767Z,20.90
2023-04-16T05:31:24.020Z,20.90
2023-04-16T05:34:18.164Z,20.80
2023-04-16T05:37:12.302Z,20.90
2023-04-16T05:40:06.827Z,20.80
2023-04-16T05:43:01.029Z,20.80
2023-04-16T05:45:55.316Z,20.80
2023-04-16T05:48:49.507Z,20.80
2023-04-16T05:51:43.650Z,20.70
2023-04-16T05:54:37.818Z,20.70
2023-04-16T05:57:32.786Z,20.70
2023-04-16T06:00:27.064Z,20.80
2023-04-16T06:03:21.309Z,20.80
2023-04-16T06:06:15.493Z,20.70
2023-04-16T06:09:09.841Z,20.70
2023-04-16T06:12:04.065Z,20.80
2023-04-16T06:14:58.258Z,20.80
2023-04-16T06:17:52.508Z,20.80
2023-04-16T06:20:47.120Z,20.80
2023-04-16T06:23:41.251Z,20.80
2023-04-16T06:26:35.344Z,20.70
2023-04-16T06:29:40.634Z,20.70
2023-04-16T06:32:35.977Z,20.70
2023-04-16T06:35:30.074Z,20.70
2023-04-16T06:38:24.220Z,20.70
2023-04-16T06:41:18.430Z,20.70
2023-04-16T06:44:12.567Z,20.70
2023-04-16T06:47:06.738Z,20.70
2023-04-16T06:50:00.826Z,20.60
2023-04-16T06:52:55.152Z,20.70
2023-04-16T06:55:49.268Z,20.70
2023-04-16T06:58:43.436Z,20.70
2023-04-16T07:01:37.739Z,20.70
2023-04-16T07:04:32.123Z,20.70
2023-04-16T07:07:26.367Z,20.60
2023-04-16T07:10:20.546Z,20.60
2023-04-16T07:13:14.665Z,20.60
2023-04-16T07:16:09.249Z,20.50
2023-04-16T07:19:03.419Z,20.50
2023-04-16T07:21:57.537Z,20.40
2023-04-16T07:24:51.840Z,20.40
2023-04-16T07:27:46.070Z,20.40
2023-04-16T07:30:40.234Z,20.30
2023-04-16T07:33:34.346Z,20.40
2023-04-16T07:36:29.570Z,20.30
2023-04-16T07:39:23.723Z,20.10
2023-04-16T07:42:17.836Z,20.10
2023-04-16T07:45:12.523Z,20.10
2023-04-16T07:48:07.093Z,20.10
2023-04-16T07:51:01.368Z,20.10
2023-04-16T07:53:55.512Z,20.20
2023-04-16T07:56:49.696Z,20.20
2023-04-16T07:59:43.918Z,20.10
2023-04-16T08:02:38.555Z,20.00
2023-04-16T08:05:32.906Z,19.90
2023-04-16T08:08:27.102Z,19.80
2023-04-16T08:11:21.779Z,19.80
2023-04-16T08:14:16.105Z,19.80
2023-04-16T08:17:10.410Z,19.80
2023-04-16T08:20:04.733Z,19.80
2023-04-16T08:22:58.923Z,19.80
2023-04-16T08:25:53.218Z,19.70
2023-04-16T08:28:47.935Z,19.60
2023-04-16T08:31:42.670Z,19.60
2023-04-16T08:34:36.914Z,19.60
2023-04-16T08:37:31.031Z,19.50
2023-04-16T08:40:30.182Z,19.50
2023-04-16T08:43:26.482Z,19.40
2023-04-16T08:46:24.238Z,19.40
2023-04-16T08:49:19.446Z,19.30
2023-04-16T08:52:21.087Z,19.30
2023-04-16T08:55:16.562Z,19.30
2023-04-16T08:58:24.493Z,19.30
2023-04-16T09:01:20.310Z,19.20
2023-04-16T09:04:19.378Z,19.20
2023-04-16T09:07:13.986Z,19.20
2023-04-16T09:10:09.830Z,19.20
2023-04-16T09:13:04.221Z,19.10
2023-04-16T09:15:58.739Z,19.20
2023-04-16T09:18:54.545Z,19.20
2023-04-16T09:21:49.626Z,19.20
2023-04-16T09:24:43.731Z,19.20
2023-04-16T09:27:38.700Z,19.20
2023-04-16T09:30:32.893Z,19.20
2023-04-16T09:33:27.220Z,19.20
2023-04-16T09:36:25.493Z,19.10
2023-04-16T09:39:23.247Z,19.10
2023-04-16T09:42:22.720Z,19.00
2023-04-16T09:45:16.896Z,19.00
2023-04-16T09:48:11.089Z,18.90
2023-04-16T09:51:08.760Z,18.90
2023-04-16T09:54:07.266Z,18.90
2023-04-16T09:57:03.337Z,18.80
2023-04-16T10:00:06.080Z,18.80
2023-04-16T10:03:07.744Z,18.70
2023-04-16T10:06:22.880Z,18.70
2023-04-16T10:09:17.337Z,18.60
2023-04-16T10:12:15.027Z,18.60
2023-04-16T10:15:09.791Z,18.50
2023-04-16T10:18:06.334Z,18.50
2023-04-16T10:21:01.619Z,18.50
2023-04-16T10:23:55.875Z,18.40
2023-04-16T10:26:53.386Z,18.40
2023-04-16T10:29:48.283Z,18.40
2023-04-16T10:32:43.942Z,18.30
2023-04-16T10:35:42.023Z,18.20
2023-04-16T10:38:36.621Z,18.10
2023-04-16T10:41:33.752Z,18.10
2023-04-16T10:44:27.937Z,18.10
2023-04-16T10:47:26.261Z,18.10
2023-04-16T10:50:21.847Z,18.00
2023-04-16T10:53:27.787Z,18.00
2023-04-16T10:56:29.197Z,17.90
2023-04-16T10:59:25.406Z,17.90
2023-04-16T11:02:20.702Z,17.90
2023-04-16T11:05:15.164Z,17.90
2023-04-16T11:08:17.541Z,17.80
2023-04-16T11:11:12.245Z,17.70
2023-04-16T11:14:08.170Z,17.70
2023-04-16T11:17:08.085Z,17.60
2023-04-16T11:20:02.440Z,17.60
2023-04-16T11:22:58.497Z,17.50
2023-04-16T11:25:58.128Z,17.50
2023-04-16T11:28:53.008Z,17.50
2023-04-16T11:31:54.785Z,17.40
2023-04-16T11:34:49.397Z,17.40
2023-04-16T11:37:44.293Z,17.40
2023-04-16T11:40:38.574Z,17.40
2023-04-16T11:43:33.211Z,17.30
2023-04-16T11:46:41.032Z,17.30
2023-04-16T11:49:35.329Z,17.20
2023-04-16T11:52:37.521Z,17.20
2023-04-16T11:55:32.264Z,17.20
2023-04-16T11:58:26.508Z,17.10
2023-04-16T12:01:22.920Z,17.10
2023-04-16T12:04:18.848Z,17.00
2023-04-16T12:07:15.333Z,17.00
2023-04-16T12:10:10.692Z,17.00
2023-04-16T12:13:18.542Z,17.00
2023-04-16T12:16:20.663Z,16.90
2023-04-16T12:19:15.429Z,16.90
2023-04-16T12:22:09.595Z,16.90
2023-04-16T12:25:09.287Z,16.80
2023-04-16T12:28:04.348Z,16.80
2023-04-16T12:30:58.775Z,16.70
2023-04-16T12:34:05.485Z,16.70
2023-04-16T12:37:12.443Z,16.70
2023-04-16T12:40:07.442Z,16.60
2023-04-16T12:43:01.628Z,16.60
2023-04-16T12:45:55.934Z,16.50
2023-04-16T12:48:51.539Z,16.50
2023-04-16T12:51:45.830Z,16.40
2023-04-16T12:54:39.942Z,16.40
2023-04-16T12:57:34.245Z,16.40
2023-04-16T13:00:28.389Z,16.30
2023-04-16T13:03:22.861Z,16.40
2023-04-16T13:06:18.061Z,16.30
2023-04-16T13:09:12.904Z,16.30
2023-04-16T13:12:07.560Z,16.30
2023-04-16T13:15:01.650Z,16.20
2023-04-16T13:17:55.781Z,16.20
2023-04-16T13:20:50.146Z,16.20
2023-04-16T13:23:44.435Z,16.20
2023-04-16T13:26:38.557Z,16.20
2023-04-16T13:29:34.236Z,16.20
2023-04-16T13:32:28.612Z,16.10
2023-04-16T13:35:22.830Z,16.00
2023-04-16T13:38:17.125Z,16.00
2023-04-16T13:41:11.420Z,16.00
2023-04-16T13:44:05.657Z,16.00
2023-04-16T13:47:00.232Z,16.00
2023-04-16T13:49:54.490Z,15.90
2023-04-16T13:52:48.591Z,15.90
2023-04-16T13:55:42.822Z,15.90
2023-04-16T13:58:37.058Z,15.80
2023-04-16T14:01:31.337Z,15.80
2023-04-16T14:04:25.512Z,15.80
2023-04-16T14:07:21.124Z,15.80
2023-04-16T14:10:15.322Z,15.80
2023-04-16T14:13:09.420Z,15.70
2023-04-16T14:16:04.352Z,15.70
2023-04-16T14:18:58.498Z,15.70
2023-04-16T14:21:52.618Z,15.60
2023-04-16T14:24:46.971Z,15.60
2023-04-16T14:27:42.325Z,15.60
2023-04-16T14:30:36.572Z,15.60
2023-04-16T14:33:30.706Z,15.50
2023-04-16T14:36:24.829Z,15.50
2023-04-16T14:39:18.971Z,15.40
2023-04-16T14:42:13.087Z,15.40
2023-04-16T14:45:08.093Z,15.40
2023-04-16T14:48:02.310Z,15.40
2023-04-16T14:50:56.565Z,15.30
2023-04-16T14:53:50.895Z,15.40
2023-04-16T14:56:45.121Z,15.40
2023-04-16T14:59:39.516Z,15.30
2023-04-16T15:02:35.054Z,15.30
2023-04-16T15:05:29.480Z,15.30
2023-04-16T15:08:24.527Z,15.30
2023-04-16T15:11:18.674Z,15.30
2023-04-16T15:14:13.025Z,15.20
2023-04-16T15:17:07.744Z,15.20
2023-04-16T15:20:02.032Z,15.20
2023-04-16T15:22:56.353Z,15.20
2023-04-16T15:25:50.523Z,15.20
2023-04-16T15:28:44.941Z,15.10
2023-04-16T15:31:39.026Z,15.10
2023-04-16T15:34:33.480Z,15.10
2023-04-16T15:37:27.828Z,15.10
2023-04-16T15:40:22.357Z,15.10
2023-04-16T15:43:17.456Z,15.10
2023-04-16T15:46:11.784Z,15.00
2023-04-16T15:49:06.208Z,15.00
2023-04-16T15:52:01.016Z,15.00
2023-04-16T15:54:56.038Z,15.00
2023-04-16T15:57:50.160Z,15.00
2023-04-16T16:00:47.629Z,14.90
2023-04-16T16:03:41.518Z,14.90
2023-04-16T16:06:36.006Z,14.90
2023-04-16T16:09:30.181Z,14.90
2023-04-16T16:12:24.652Z,14.90
2023-04-16T16:15:18.829Z,14.90
2023-04-16T16:18:12.963Z,14.80
2023-04-16T16:21:07.427Z,14.80
2023-04-16T16:24:01.655Z,14.80
2023-04-16T16:26:56.017Z,14.80
2023-04-16T16:29:50.127Z,14.70
2023-04-16T16:32:45.536Z,14.70
2023-04-16T16:35:39.722Z,14.70
2023-04-16T16:38:33.941Z,14.70
2023-04-16T16:41:28.042Z,14.70
2023-04-16T16:44:23.033Z,14.60
2023-04-16T16:47:17.159Z,14.60
2023-04-16T16:50:12.781Z,14.60
2023-04-16T16:53:07.026Z,14.60
2023-04-16T16:56:02.202Z,14.60
2023-04-16T16:58:56.413Z,14.60
2023-04-16T17:01:50.559Z,14.60
2023-04-16T17:04:44.928Z,14.60
2023-04-16T17:07:39.138Z,14.60
2023-04-16T17:10:34.489Z,14.60
2023-04-16T17:13:28.808Z,14.50
2023-04-16T17:16:23.030Z,14.50
2023-04-16T17:19:18.394Z,14.50
2023-04-16T17:22:13.037Z,14.50
2023-04-16T17:25:08.888Z,14.50
2023-04-16T17:28:03.077Z,14.50
2023-04-16T17:30:58.376Z,14.50
2023-04-16T17:33:52.788Z,14.50
2023-04-16T17:36:48.359Z,14.50
2023-04-16T17:39:42.502Z,14.40
2023-04-16T17:42:37.514Z,14.40
2023-04-16T17:45:31.958Z,14.40
2023-04-16T17:48:26.186Z,14.40
2023-04-16T17:51:20.376Z,14.40
2023-04-16T17:54:14.576Z,14.40
2023-04-16T17:57:08.810Z,14.40
2023-04-16T18:00:03.028Z,14.40
2023-04-16T18:02:57.908Z,14.40
2023-04-16T18:05:52.292Z,14.40
2023-04-16T18:08:46.639Z,14.40
2023-04-16T18:11:40.918Z,14.40
2023-04-16T18:14:39.965Z,14.40
2023-04-16T18:17:34.364Z,14.30
2023-04-16T18:20:28.503Z,14.30
2023-04-16T18:23:22.778Z,14.30
2023-04-16T18:26:20.389Z,14.30
2023-04-16T18:29:17.641Z,14.30
2023-04-16T18:32:12.688Z,14.30
2023-04-16T18:35:08.608Z,14.30
2023-04-16T18:38:03.345Z,14.20
2023-04-16T18:40:59.884Z,14.20
2023-04-16T18:43:54.122Z,14.10
2023-04-16T18:46:48.408Z,14.10
2023-04-16T18:49:42.577Z,14.10
2023-04-16T18:52:37.297Z,14.10
2023-04-16T18:55:31.823Z,14.10
2023-04-16T18:58:25.996Z,14.10
2023-04-16T19:01:20.231Z,14.10
2023-04-16T19:04:14.591Z,14.10
2023-04-16T19:07:08.765Z,14.10
2023-04-16T19:10:06.376Z,14.10
2023-04-16T19:13:00.696Z,14.10
2023-04-16T19:16:01.288Z,14.10
2023-04-16T19:18:55.493Z,14.10
2023-04-16T19:21:50.750Z,14.10
2023-04-16T19:24:44.889Z,14.10
2023-04-16T19:27:39.014Z,14.00
2023-04-16T19:30:33.207Z,14.00
2023-04-16T19:33:27.374Z,14.00
2023-04-16T19:36:21.474Z,14.00
2023-04-16T19:39:15.604Z,14.00
2023-04-16T19:42:09.695Z,14.00
2023-04-16T19:45:04.502Z,13.90
2023-04-16T19:47:59.076Z,13.90
2023-04-16T19:50:53.545Z,13.90
2023-04-16T19:53:47.794Z,13.90
2023-04-16T19:56:41.952Z,13.90
2023-04-16T19:59:36.411Z,13.90
2023-04-16T20:02:30.617Z,13.90
2023-04-16T20:05:26.313Z,13.80
2023-04-16T20:08:20.473Z,13.80
2023-04-16T20:11:14.654Z,13.80
2023-04-16T20:14:08.829Z,13.80
2023-04-16T20:17:03.110Z,13.70
2023-04-16T20:20:02.185Z,13.70
2023-04-16T20:22:56.632Z,13.70
2023-04-16T20:25:50.833Z,13.60
2023-04-16T20:28:44.980Z,13.60
2023-04-16T20:31:39.169Z,13.60
2023-04-16T20:34:33.272Z,13.60
2023-04-16T20:37:27.388Z,13.60
2023-04-16T20:40:22.387Z,13.60
2023-04-16T20:43:19.995Z,13.60
2023-04-16T20:46:14.999Z,13.60
2023-04-16T20:49:09.738Z,13.60
2023-04-16T20:52:04.821Z,13.60
2023-04-16T20:54:59.056Z,13.60
2023-04-16T20:57:53.165Z,13.60
2023-04-16T21:00:54.002Z,13.60
2023-04-16T21:03:48.355Z,13.50
2023-04-16T21:06:44.278Z,13.50
2023-04-16T21:09:38.349Z,13.60
2023-04-16T21:12:32.593Z,13.50
2023-04-16T21:15:26.808Z,13.50
2023-04-16T21:18:20.965Z,13.50
2023-04-16T21:21:15.071Z,13.50
2023-04-16T21:24:09.474Z,13.50
2023-04-16T21:27:03.580Z,13.50
2023-04-16T21:29:57.810Z,13.50
2023-04-16T21:32:52.193Z,13.50
2023-04-16T21:35:46.565Z,13.50
2023-04-16T21:38:40.759Z,13.50
2023-04-16T21:41:35.079Z,13.50
2023-04-16T21:44:29.175Z,13.50
2023-04-16T21:47:23.351Z,13.50
2023-04-16T21:50:17.512Z,13.60
2023-04-16T21:53:11.696Z,13.60
2023-04-16T21:56:06.016Z,13.60
2023-04-16T21:59:00.134Z,13.60
2023-04-16T22:01:54.323Z,13.70
2023-04-16T22:04:48.613Z,13.90
2023-04-16T22:07:42.884Z,14.60
2023-04-16T22:10:37.389Z,15.60
2023-04-16T22:13:37.694Z,16.70
2023-04-16T22:16:32.263Z,17.70
2023-04-16T22:19:27.662Z,18.70
2023-04-16T22:22:22.023Z,19.60
2023-04-16T22:25:16.176Z,20.50
2023-04-16T22:28:10.285Z,21.30
2023-04-16T22:31:04.481Z,22.00
2023-04-16T22:33:58.654Z,22.50
2023-04-16T22:36:52.780Z,22.10
2023-04-16T22:39:47.125Z,21.40
2023-04-16T22:42:41.216Z,20.80
2023-04-16T22:45:35.923Z,20.20
2023-04-16T22:48:30.291Z,19.70
2023-04-16T22:51:25.617Z,19.40
2023-04-16T22:54:19.752Z,19.30
2023-04-16T22:57:13.923Z,20.00
2023-04-16T23:00:11.228Z,20.30
2023-04-16T23:03:04.928Z,20.90
2023-04-16T23:05:59.106Z,21.70
2023-04-16T23:08:53.209Z,23.10
2023-04-16T23:11:47.520Z,24.70
2023-04-16T23:14:47.186Z,26.00
2023-04-16T23:17:41.623Z,27.00
2023-04-16T23:20:35.960Z,28.10
2023-04-16T23:23:30.143Z,29.10
2023-04-16T23:26:24.253Z,29.80
2023-04-16T23:29:18.334Z,30.20
2023-04-16T23:32:12.649Z,29.50
2023-04-16T23:35:07.269Z,28.10
2023-04-16T23:38:01.612Z,26.90
2023-04-16T23:40:55.730Z,25.70
2023-04-16T23:43:49.813Z,24.80
2023-04-16T23:46:43.970Z,24.10
2023-04-16T23:49:38.537Z,23.50
2023-04-16T23:52:32.761Z,23.10
2023-04-16T23:55:27.179Z,22.80
2023-04-16T23:58:21.669Z,22.50
